Time;durP1;ratioP1;P1;durP2;ratioP2;P2;SDS_P1;SDS_P2;PMS_P1;PMS_P2;Temp;Humidity;BMP_temperature;BMP_pressure;BME280_temperature;BME280_humidity;BME280_pressure;Samples;Min_cycle;Max_cycle;Signal;HPM_P1;HPM_P2
2023/05/31 00:01:14;;;;;;;9.00;7.25;;;;;;;22.34;85.64;98183.75;5074576;28;20052;-57
2023/05/31 00:03:44;;;;;;;9.82;7.35;;;;;;;22.21;85.79;98189.75;5064057;28;20049;-57
2023/05/31 00:06:13;;;;;;;11.43;7.10;;;;;;;22.32;85.73;98191.28;5089511;28;20043;-58
2023/05/31 00:08:42;;;;;;;8.55;6.28;;;;;;;22.33;85.28;98188.31;5087261;28;20459;-56
2023/05/31 00:11:12;;;;;;;8.88;6.60;;;;;;;22.34;85.32;98192.66;5087114;28;20124;-57
2023/05/31 00:13:42;;;;;;;12.07;7.10;;;;;;;22.34;85.68;98192.66;5086747;28;20048;-58
2023/05/31 00:16:11;;;;;;;7.15;6.03;;;;;;;22.32;84.99;98192.09;5090855;28;20039;-57
2023/05/31 00:19:01;;;;;;;10.05;6.50;;;;;;;22.31;84.79;98193.19;5084897;28;20051;-57
2023/05/31 00:21:30;;;;;;;10.80;5.80;;;;;;;22.34;85.30;98203.44;5079439;28;20102;-58
2023/05/31 00:23:59;;;;;;;8.63;5.88;;;;;;;22.36;85.35;98200.44;5066396;28;20668;-58
2023/05/31 00:26:28;;;;;;;11.48;6.63;;;;;;;22.37;85.49;98192.06;5089276;28;20043;-57
2023/05/31 00:28:58;;;;;;;10.98;6.22;;;;;;;22.34;85.34;98200.75;5073718;28;20047;-57
2023/05/31 00:31:27;;;;;;;7.88;6.03;;;;;;;22.33;84.85;98203.72;5095907;28;20390;-58
2023/05/31 00:33:57;;;;;;;8.55;6.00;;;;;;;22.36;85.47;98209.34;5096465;28;20047;-58
2023/05/31 00:36:27;;;;;;;13.23;6.70;;;;;;;22.36;85.19;98216.63;5094433;28;20052;-58
2023/05/31 00:38:56;;;;;;;14.93;7.95;;;;;;;22.38;85.46;98225.25;5095959;28;20044;-57
2023/05/31 00:41:26;;;;;;;9.93;6.35;;;;;;;22.43;85.59;98227.94;5090861;28;20039;-57
2023/05/31 00:43:55;;;;;;;10.00;6.70;;;;;;;22.45;85.49;98230.31;5094760;28;20048;-58
2023/05/31 00:46:34;;;;;;;12.20;6.97;;;;;;;22.39;86.00;98241.16;5095100;28;20124;-59
2023/05/31 00:49:05;;;;;;;9.45;6.53;;;;;;;22.35;86.31;98242.81;5095206;28;20079;-56
2023/05/31 00:51:36;;;;;;;11.93;7.00;;;;;;;22.41;86.63;98240.88;5096299;28;20047;-57
2023/05/31 00:54:07;;;;;;;9.25;7.30;;;;;;;22.47;86.81;98249.75;5094632;28;20526;-57
2023/05/31 00:56:37;;;;;;;14.27;6.60;;;;;;;22.52;86.71;98260.53;5095851;28;20135;-59
2023/05/31 00:59:09;;;;;;;16.42;8.93;;;;;;;22.56;86.59;98258.88;5094029;28;20043;-59
2023/05/31 01:01:39;;;;;;;10.05;7.03;;;;;;;22.56;86.72;98265.09;5106997;28;20039;-59
2023/05/31 01:04:09;;;;;;;10.90;7.82;;;;;;;22.56;86.34;98275.06;5094077;28;20431;-58
2023/05/31 01:06:39;;;;;;;11.65;7.75;;;;;;;22.53;86.91;98278.31;5097624;28;20116;-58
2023/05/31 01:09:08;;;;;;;9.35;7.40;;;;;;;22.61;86.89;98289.34;5077086;28;20050;-58
2023/05/31 01:11:56;;;;;;;11.10;7.97;;;;;;;22.66;86.47;98288.50;5106719;28;20054;-58
2023/05/31 01:14:55;;;;;;;10.65;7.25;;;;;;;22.67;86.24;98292.78;5093052;28;20052;-59
2023/05/31 01:18:03;;;;;;;11.00;7.57;;;;;;;22.67;85.83;98292.78;5094535;28;20047;-59
2023/05/31 01:20:37;;;;;;;12.40;7.55;;;;;;;22.67;85.74;98298.19;5076333;28;20558;-59
2023/05/31 01:23:37;;;;;;;11.18;7.55;;;;;;;22.70;86.07;98309.28;5105782;28;20345;-59
2023/05/31 01:26:25;;;;;;;9.80;7.15;;;;;;;22.72;85.60;98311.69;5096063;28;20051;-59
2023/05/31 01:28:59;;;;;;;11.77;7.95;;;;;;;22.76;85.56;98310.06;5097426;28;20051;-58
2023/05/31 01:31:31;;;;;;;10.10;7.22;;;;;;;22.77;85.56;98308.97;5105578;28;20146;-58
2023/05/31 01:34:02;;;;;;;11.77;6.95;;;;;;;22.76;85.75;98304.66;5084738;28;20074;-58
2023/05/31 01:36:32;;;;;;;11.43;6.93;;;;;;;22.79;85.83;98302.19;5068070;28;20371;-61
2023/05/31 01:39:03;;;;;;;12.23;7.10;;;;;;;22.82;85.22;98301.66;5087407;28;20486;-58
2023/05/31 01:41:38;;;;;;;8.73;6.90;;;;;;;22.81;85.43;98313.53;5073812;28;20051;-59
2023/05/31 01:44:10;;;;;;;12.52;7.40;;;;;;;22.86;85.31;98322.69;5087196;28;20130;-58
2023/05/31 01:46:41;;;;;;;9.50;6.27;;;;;;;22.90;84.39;98332.63;5089264;28;20043;-58
2023/05/31 01:49:11;;;;;;;8.15;6.50;;;;;;;22.92;83.88;98338.56;5067778;28;20059;-59
2023/05/31 01:51:43;;;;;;;11.15;6.80;;;;;;;22.89;83.02;98344.53;5069164;28;20071;-58
2023/05/31 01:54:14;;;;;;;9.95;6.75;;;;;;;23.04;83.92;98346.31;5090063;28;20040;-58
2023/05/31 01:56:46;;;;;;;8.43;6.22;;;;;;;23.13;83.44;98358.94;5088104;28;20043;-57
2023/05/31 01:59:16;;;;;;;9.95;6.20;;;;;;;23.24;83.46;98355.06;5085286;28;20127;-58
2023/05/31 02:01:47;;;;;;;7.25;6.18;;;;;;;23.35;83.29;98358.50;5088945;28;20104;-58
2023/05/31 02:04:20;;;;;;;8.40;6.18;;;;;;;23.50;82.60;98352.97;5084860;28;20718;-58
2023/05/31 02:06:51;;;;;;;8.77;6.50;;;;;;;23.71;81.87;98350.91;5089084;28;20714;-58
2023/05/31 02:09:21;;;;;;;11.55;6.63;;;;;;;24.07;80.69;98354.03;5055161;28;20055;-60
2023/05/31 02:11:51;;;;;;;10.18;7.82;;;;;;;24.28;78.73;98350.00;5101662;28;20134;-58
2023/05/31 02:14:20;;;;;;;11.63;7.22;;;;;;;24.49;76.79;98359.47;5071392;28;20642;-58
2023/05/31 02:16:50;;;;;;;6.70;6.00;;;;;;;24.66;75.63;98356.25;5088873;28;20070;-58
2023/05/31 02:19:19;;;;;;;9.27;5.30;;;;;;;24.44;72.75;98347.88;5088411;28;20052;-60
2023/05/31 02:21:49;;;;;;;9.38;5.72;;;;;;;24.54;73.83;98353.19;5088618;28;20795;-59
2023/05/31 02:24:18;;;;;;;5.70;5.13;;;;;;;24.50;72.96;98352.16;5088274;28;20139;-59
2023/05/31 02:26:48;;;;;;;9.48;5.35;;;;;;;24.68;73.28;98359.50;5091227;28;20465;-59
2023/05/31 02:29:17;;;;;;;7.25;5.28;;;;;;;24.55;72.65;98358.31;5091149;28;20059;-60
2023/05/31 02:31:46;;;;;;;7.75;5.60;;;;;;;24.51;73.41;98353.78;5092608;28;20055;-58
2023/05/31 02:34:16;;;;;;;8.25;5.88;;;;;;;24.43;73.06;98357.13;5105090;28;20136;-59
2023/05/31 02:36:45;;;;;;;8.70;6.18;;;;;;;24.76;75.14;98369.66;5090601;28;20071;-56
2023/05/31 02:39:15;;;;;;;7.57;5.60;;;;;;;24.80;74.53;98376.09;5090940;28;20043;-58
2023/05/31 02:41:44;;;;;;;8.80;6.18;;;;;;;24.87;72.77;98373.84;5091665;28;20120;-58
2023/05/31 02:44:14;;;;;;;11.75;6.63;;;;;;;25.07;72.70;98380.88;5091772;28;20449;-59
2023/05/31 02:46:43;;;;;;;10.75;6.40;;;;;;;25.08;72.90;98379.00;5092382;28;20057;-58
2023/05/31 02:49:13;;;;;;;11.63;6.63;;;;;;;25.08;73.58;98387.13;5091894;28;20150;-59
2023/05/31 02:51:43;;;;;;;10.07;6.70;;;;;;;24.90;73.16;98383.31;5092404;28;20075;-59
2023/05/31 02:54:47;;;;;;;9.68;7.15;;;;;;;24.93;74.46;98388.13;5108681;28;20116;-60
2023/05/31 02:57:21;;;;;;;11.18;8.68;;;;;;;24.71;74.26;98385.97;5087525;28;20221;-59
2023/05/31 02:59:55;;;;;;;15.15;10.10;;;;;;;24.66;74.56;98394.16;5091323;28;20054;-58
2023/05/31 03:02:25;;;;;;;20.63;11.63;;;;;;;24.75;75.97;98395.13;5089508;28;20055;-60
2023/05/31 03:05:17;;;;;;;19.90;12.35;;;;;;;24.73;75.89;98389.22;5107407;28;20035;-60
2023/05/31 03:07:48;;;;;;;20.92;14.35;;;;;;;24.73;74.71;98389.22;5091483;28;20043;-58
2023/05/31 03:10:18;;;;;;;23.33;17.55;;;;;;;24.71;75.74;98391.41;5091492;28;20043;-60
2023/05/31 03:12:47;;;;;;;29.20;21.50;;;;;;;24.70;76.05;98395.19;5087001;28;20064;-59
2023/05/31 03:15:17;;;;;;;29.33;20.70;;;;;;;24.66;75.33;98393.38;5091111;28;20126;-61
2023/05/31 03:17:47;;;;;;;33.20;23.00;;;;;;;24.33;73.95;98393.25;5087976;28;20048;-59
2023/05/31 03:20:16;;;;;;;35.10;26.05;;;;;;;24.55;74.38;98403.53;5087769;28;20043;-59
2023/05/31 03:22:45;;;;;;;44.63;30.13;;;;;;;24.40;73.16;98399.13;5065916;28;20066;-58
2023/05/31 03:25:15;;;;;;;46.38;31.40;;;;;;;24.35;72.17;98398.34;5090538;28;20142;-59
2023/05/31 03:27:45;;;;;;;45.10;31.52;;;;;;;24.68;73.79;98404.72;5108166;28;20504;-59
2023/05/31 03:30:14;;;;;;;48.17;33.63;;;;;;;24.77;73.37;98411.91;5108595;28;20134;-60
2023/05/31 03:32:51;;;;;;;47.45;34.75;;;;;;;24.61;72.94;98407.78;5087610;28;20236;-59
2023/05/31 03:35:21;;;;;;;48.90;34.65;;;;;;;24.72;74.15;98413.88;5088826;28;20457;-60
2023/05/31 03:37:50;;;;;;;48.88;31.23;;;;;;;24.83;73.42;98416.16;5074326;28;20054;-59
2023/05/31 03:40:20;;;;;;;43.90;28.27;;;;;;;24.83;72.60;98404.50;5090313;28;20081;-58
2023/05/31 03:42:49;;;;;;;39.15;25.98;;;;;;;24.85;71.60;98408.53;5086357;28;20078;-60
2023/05/31 03:45:19;;;;;;;40.42;26.13;;;;;;;24.93;71.00;98415.25;5087216;28;20048;-62
2023/05/31 03:47:50;;;;;;;44.83;29.45;;;;;;;24.85;70.73;98405.84;5087484;28;20044;-59
2023/05/31 03:50:21;;;;;;;42.47;25.85;;;;;;;25.03;70.65;98407.78;5070674;28;20051;-59
2023/05/31 03:52:51;;;;;;;35.00;24.25;;;;;;;25.33;70.29;98402.97;5062558;28;20052;-60
2023/05/31 03:55:20;;;;;;;31.65;22.70;;;;;;;25.54;69.91;98404.28;5099139;28;20067;-61
2023/05/31 03:57:49;;;;;;;36.35;25.00;;;;;;;25.48;68.64;98406.28;5090859;28;20069;-61
2023/05/31 04:00:20;;;;;;;33.05;21.83;;;;;;;25.57;69.40;98409.13;5090393;28;20071;-60
2023/05/31 04:02:52;;;;;;;26.52;19.20;;;;;;;25.45;69.67;98411.44;5071831;28;20036;-58
2023/05/31 04:05:33;;;;;;;27.00;18.70;;;;;;;25.23;70.68;98405.84;5069829;28;20040;-58
2023/05/31 04:08:04;;;;;;;29.50;19.85;;;;;;;25.17;71.98;98404.31;5086293;28;20043;-63
2023/05/31 04:10:34;;;;;;;28.02;19.88;;;;;;;25.05;71.96;98405.56;5070516;28;20048;-62
2023/05/31 04:13:04;;;;;;;27.55;20.20;;;;;;;24.90;71.73;98411.22;5050165;28;20520;-61
2023/05/31 04:15:34;;;;;;;28.02;20.38;;;;;;;24.79;71.99;98412.41;5069765;28;20056;-61
2023/05/31 04:18:04;;;;;;;30.85;19.40;;;;;;;24.75;72.46;98400.56;5059896;28;20059;-62
2023/05/31 04:20:34;;;;;;;23.75;16.80;;;;;;;24.75;72.80;98411.38;5085680;28;20059;-60
2023/05/31 04:23:04;;;;;;;20.20;14.30;;;;;;;24.72;73.78;98411.97;5075815;28;20400;-63
2023/05/31 04:25:33;;;;;;;23.50;16.75;;;;;;;24.67;73.26;98408.53;5050088;28;20044;-65
2023/05/31 04:28:07;;;;;;;22.67;15.45;;;;;;;24.55;73.10;98404.34;5060746;28;20047;-61
2023/05/31 04:30:38;;;;;;;22.75;14.65;;;;;;;24.58;73.56;98402.94;5067873;28;20068;-63
2023/05/31 04:33:08;;;;;;;19.33;13.57;;;;;;;24.54;73.41;98408.16;5083919;28;20230;-62
2023/05/31 04:35:38;;;;;;;18.50;11.52;;;;;;;24.54;72.47;98405.44;5068170;28;20048;-61
2023/05/31 04:38:08;;;;;;;15.02;10.82;;;;;;;24.52;72.83;98399.50;5066995;28;20050;-60
2023/05/31 04:40:40;;;;;;;19.70;11.60;;;;;;;24.49;73.17;98408.22;5075408;28;20072;-61
2023/05/31 04:43:10;;;;;;;17.00;10.30;;;;;;;24.55;73.28;98393.50;5066334;28;20139;-60
2023/05/31 04:45:40;;;;;;;13.57;10.27;;;;;;;24.51;73.63;98399.81;5066724;28;20129;-61
2023/05/31 04:48:12;;;;;;;16.10;10.07;;;;;;;24.38;73.95;98401.31;5066819;28;20036;-60
2023/05/31 04:50:42;;;;;;;14.20;10.35;;;;;;;24.39;73.62;98407.50;5081914;28;20412;-59
2023/05/31 04:53:12;;;;;;;17.95;9.88;;;;;;;24.37;73.12;98401.59;5068860;28;20067;-58
2023/05/31 04:55:41;;;;;;;13.95;10.00;;;;;;;24.31;73.50;98405.44;5069611;28;20059;-58
2023/05/31 04:58:12;;;;;;;13.77;9.13;;;;;;;24.26;73.43;98400.91;5065182;28;20048;-58
2023/05/31 05:00:42;;;;;;;15.95;9.85;;;;;;;24.36;73.24;98395.38;5064628;28;20048;-59
2023/05/31 05:03:15;;;;;;;14.63;9.93;;;;;;;24.42;75.00;98405.06;5074179;28;20531;-60
2023/05/31 05:05:47;;;;;;;14.25;9.40;;;;;;;24.46;74.31;98402.56;5076078;28;20541;-61
2023/05/31 05:08:17;;;;;;;11.25;9.18;;;;;;;24.49;74.27;98404.69;5088190;28;20063;-62
2023/05/31 05:10:48;;;;;;;11.45;8.80;;;;;;;24.44;73.74;98402.84;5078523;28;20043;-61
2023/05/31 05:13:18;;;;;;;12.02;9.05;;;;;;;24.54;74.37;98394.59;5087508;28;20105;-60
2023/05/31 05:15:52;;;;;;;18.83;9.23;;;;;;;24.57;74.14;98398.63;5103576;28;20074;-61
2023/05/31 05:18:21;;;;;;;12.18;9.40;;;;;;;24.61;74.00;98399.66;5087123;28;20051;-61
2023/05/31 05:20:51;;;;;;;13.50;9.52;;;;;;;24.66;74.21;98402.28;5073755;28;20513;-57
2023/05/31 05:23:25;;;;;;;13.20;9.60;;;;;;;24.58;74.28;98413.78;5085462;28;20491;-60
2023/05/31 05:25:56;;;;;;;13.25;8.90;;;;;;;24.58;73.41;98411.06;5079104;28;20040;-60
2023/05/31 05:28:28;;;;;;;11.43;8.43;;;;;;;24.58;73.55;98413.78;5079977;28;20044;-61
2023/05/31 05:30:58;;;;;;;21.60;9.25;;;;;;;24.48;73.05;98408.47;5099005;28;20520;-65
2023/05/31 05:33:33;;;;;;;18.38;9.10;;;;;;;24.54;73.80;98412.75;5075668;28;20352;-63
2023/05/31 05:36:04;;;;;;;19.42;8.75;;;;;;;24.54;73.88;98407.34;5080546;28;20054;-61
2023/05/31 05:38:42;;;;;;;15.55;9.13;;;;;;;24.41;73.11;98403.44;5080030;28;20382;-61
2023/05/31 05:41:12;;;;;;;14.10;10.43;;;;;;;24.26;71.29;98409.03;5079628;28;20043;-61
2023/05/31 05:43:43;;;;;;;18.85;10.57;;;;;;;24.38;73.11;98404.03;5069650;28;20709;-62
2023/05/31 05:46:16;;;;;;;13.85;10.05;;;;;;;24.46;73.32;98406.09;5077759;28;20048;-62
2023/05/31 05:48:46;;;;;;;15.25;9.77;;;;;;;24.45;72.03;98411.78;5082054;28;20058;-62
2023/05/31 05:51:18;;;;;;;14.13;9.60;;;;;;;24.40;72.05;98411.84;5076856;28;20583;-66
2023/05/31 05:53:48;;;;;;;15.77;9.88;;;;;;;24.29;72.06;98410.34;5077499;28;20051;-61
2023/05/31 05:56:18;;;;;;;13.60;9.55;;;;;;;24.41;73.89;98413.47;5077415;28;20093;-61
2023/05/31 05:58:55;;;;;;;15.10;10.80;;;;;;;24.44;74.43;98412.88;5074583;28;20044;-59
2023/05/31 06:01:54;;;;;;;12.40;9.00;;;;;;;24.45;75.16;98414.50;5075982;28;20040;-57
2023/05/31 06:04:25;;;;;;;13.32;8.73;;;;;;;24.44;75.96;98421.81;5075957;28;20694;-59
2023/05/31 06:06:55;;;;;;;14.05;9.65;;;;;;;24.39;74.77;98418.34;5076087;28;20036;-58
2023/05/31 06:09:24;;;;;;;14.32;9.82;;;;;;;24.37;74.92;98423.25;5084738;28;20062;-59
2023/05/31 06:11:55;;;;;;;16.63;10.10;;;;;;;24.39;75.26;98431.88;5067111;28;20523;-59
2023/05/31 06:14:29;;;;;;;15.55;9.38;;;;;;;24.39;75.40;98432.69;5082804;28;20131;-58
2023/05/31 06:17:00;;;;;;;12.35;9.15;;;;;;;24.41;75.07;98429.69;5088124;28;20050;-56
2023/05/31 06:19:30;;;;;;;12.13;8.20;;;;;;;24.38;74.54;98427.56;5087870;28;20748;-62
2023/05/31 06:22:00;;;;;;;10.55;7.57;;;;;;;24.42;74.46;98434.03;5086608;28;20404;-62
2023/05/31 06:24:30;;;;;;;8.13;6.95;;;;;;;24.42;75.06;98429.41;5087796;28;20372;-62
2023/05/31 06:27:02;;;;;;;11.48;7.28;;;;;;;24.42;75.83;98425.91;5086251;28;20138;-60
2023/05/31 06:29:35;;;;;;;13.57;6.93;;;;;;;24.46;76.35;98419.63;5085553;28;20117;-63
2023/05/31 06:32:16;;;;;;;12.95;7.50;;;;;;;24.42;76.51;98413.19;5082525;28;20070;-60
2023/05/31 06:34:48;;;;;;;10.50;7.00;;;;;;;24.44;76.57;98412.88;5087844;28;20040;-63
2023/05/31 06:37:20;;;;;;;12.75;7.25;;;;;;;24.42;76.27;98417.78;5085894;28;20051;-61
2023/05/31 06:39:50;;;;;;;12.40;7.50;;;;;;;24.42;76.58;98409.66;5087379;28;20066;-62
2023/05/31 06:42:21;;;;;;;12.13;7.35;;;;;;;24.47;77.49;98404.19;5081885;28;21595;-64
2023/05/31 06:44:57;;;;;;;9.07;7.40;;;;;;;24.48;78.01;98403.88;5087607;28;20052;-60
2023/05/31 06:47:46;;;;;;;11.02;7.07;;;;;;;24.51;77.97;98400.63;5087753;28;20054;-63
2023/05/31 06:50:40;;;;;;;13.05;8.10;;;;;;;24.54;76.83;98391.91;5063032;28;20051;-60
2023/05/31 06:53:47;;;;;;;13.20;8.48;;;;;;;24.49;77.37;98389.25;5082566;28;20039;-61
2023/05/31 06:56:21;;;;;;;13.20;7.35;;;;;;;24.58;77.38;98386.69;5084764;28;20127;-60
2023/05/31 06:58:51;;;;;;;11.95;7.78;;;;;;;24.62;77.57;98379.59;5087116;28;20151;-59
2023/05/31 07:01:20;;;;;;;12.70;8.15;;;;;;;24.72;77.12;98370.53;5069863;28;20440;-62
2023/05/31 07:03:51;;;;;;;12.57;8.05;;;;;;;24.78;76.54;98369.38;5059289;28;20441;-61
2023/05/31 07:06:20;;;;;;;9.82;7.80;;;;;;;24.84;76.77;98373.59;5070228;28;20104;-58
2023/05/31 07:08:51;;;;;;;13.98;10.07;;;;;;;24.84;76.60;98369.00;5105016;28;20085;-58
2023/05/31 07:11:34;;;;;;;13.07;10.25;;;;;;;24.82;76.17;98365.78;5075807;28;20145;-58
2023/05/31 07:14:04;;;;;;;16.77;10.55;;;;;;;24.78;75.82;98380.22;5052747;28;20059;-56
2023/05/31 07:16:35;;;;;;;16.38;11.60;;;;;;;24.67;75.89;98374.13;5081747;28;20399;-59
2023/05/31 07:19:04;;;;;;;18.23;11.35;;;;;;;24.80;76.21;98378.00;5100380;28;20040;-57
2023/05/31 07:21:34;;;;;;;23.70;13.13;;;;;;;24.83;75.87;98382.81;5088496;28;20067;-57
2023/05/31 07:24:04;;;;;;;18.58;12.15;;;;;;;24.82;76.03;98384.75;5072642;28;20043;-59
2023/05/31 07:26:33;;;;;;;19.90;12.82;;;;;;;24.86;75.56;98388.53;5090871;28;20104;-59
2023/05/31 07:29:02;;;;;;;17.20;11.85;;;;;;;24.86;75.98;98388.53;5098899;28;20098;-59
2023/05/31 07:31:32;;;;;;;20.33;11.68;;;;;;;24.85;76.19;98388.78;5096306;28;20044;-61
2023/05/31 07:34:01;;;;;;;24.38;15.52;;;;;;;24.87;75.49;98389.34;5098376;28;20052;-61
2023/05/31 07:36:31;;;;;;;25.58;17.65;;;;;;;24.79;75.94;98384.50;5096457;28;20058;-59
2023/05/31 07:39:01;;;;;;;27.35;19.58;;;;;;;24.88;75.31;98393.63;5093337;28;20124;-60
2023/05/31 07:41:30;;;;;;;32.63;20.25;;;;;;;24.87;75.15;98386.63;5106279;28;20051;-59
2023/05/31 07:44:01;;;;;;;27.23;19.38;;;;;;;24.83;75.54;98397.19;5100483;28;20051;-59
2023/05/31 07:46:30;;;;;;;35.35;20.98;;;;;;;24.85;75.79;98389.59;5097961;28;20451;-59
2023/05/31 07:48:59;;;;;;;33.80;20.90;;;;;;;24.86;75.88;98382.28;5097278;28;20043;-59
2023/05/31 07:51:30;;;;;;;34.17;22.17;;;;;;;24.86;75.59;98377.69;5098933;28;20055;-60
2023/05/31 07:54:04;;;;;;;29.27;21.67;;;;;;;24.84;75.95;98384.44;5083805;28;20150;-59
2023/05/31 07:56:33;;;;;;;39.97;24.25;;;;;;;24.76;75.59;98390.53;5096029;28;20052;-59
2023/05/31 07:59:03;;;;;;;33.70;23.92;;;;;;;24.81;75.82;98387.75;5091221;28;20478;-60
2023/05/31 08:01:33;;;;;;;40.05;23.08;;;;;;;24.79;75.95;98392.63;5097501;28;20055;-59
2023/05/31 08:04:07;;;;;;;31.65;22.25;;;;;;;24.81;76.02;98385.03;5097910;28;20056;-60
2023/05/31 08:06:38;;;;;;;37.10;23.50;;;;;;;24.81;75.57;98385.03;4750621;27;10000310;-60
2023/05/31 08:09:08;;;;;;;30.73;22.60;;;;;;;24.77;75.66;98379.41;5104525;28;20047;-61
2023/05/31 08:11:37;;;;;;;34.33;23.85;;;;;;;24.77;75.30;98384.81;5106065;28;20131;-59
2023/05/31 08:14:07;;;;;;;33.47;22.85;;;;;;;24.77;75.50;98379.41;5085474;28;20249;-59
2023/05/31 08:16:37;;;;;;;32.55;22.75;;;;;;;24.75;74.77;98381.59;5078955;28;20460;-59
2023/05/31 08:19:07;;;;;;;32.67;22.65;;;;;;;24.76;75.51;98380.50;5088314;28;20046;-60
2023/05/31 08:21:37;;;;;;;30.10;21.48;;;;;;;24.78;75.24;98366.66;5105183;28;20040;-62
2023/05/31 08:24:06;;;;;;;30.88;20.90;;;;;;;24.82;75.00;98363.09;5086737;28;20438;-58
2023/05/31 08:26:36;;;;;;;26.25;17.98;;;;;;;24.82;74.77;98359.56;5105453;28;20043;-60
2023/05/31 08:29:05;;;;;;;26.35;16.58;;;;;;;24.82;74.51;98354.16;5105285;28;20107;-61
2023/05/31 08:31:34;;;;;;;22.65;16.42;;;;;;;24.85;75.12;98350.84;5082963;28;20143;-58
2023/05/31 08:34:05;;;;;;;24.48;15.95;;;;;;;24.83;74.36;98348.41;5100631;28;20048;-60
2023/05/31 08:36:35;;;;;;;39.08;15.75;;;;;;;24.74;74.94;98346.69;5105755;28;20044;-59
2023/05/31 08:39:07;;;;;;;22.92;15.20;;;;;;;24.79;75.10;98341.16;5107091;28;20460;-59
2023/05/31 08:41:56;;;;;;;31.92;16.60;;;;;;;24.78;75.25;98343.09;5107025;28;20139;-60
2023/05/31 08:44:27;;;;;;;23.75;15.45;;;;;;;24.81;75.40;98339.00;5106314;28;20174;-60
2023/05/31 08:47:12;;;;;;;23.08;14.70;;;;;;;24.73;75.65;98340.47;5104840;28;20058;-60
2023/05/31 08:49:44;;;;;;;21.98;12.50;;;;;;;24.72;75.66;98327.19;5107126;28;20050;-60
2023/05/31 08:52:16;;;;;;;16.15;12.18;;;;;;;24.68;76.22;98331.59;5088604;28;20463;-58
2023/05/31 08:54:47;;;;;;;16.02;11.02;;;;;;;24.75;76.53;98321.19;5106284;28;20043;-58
2023/05/31 08:57:17;;;;;;;21.08;12.18;;;;;;;24.74;76.77;98314.97;5106189;28;20122;-60
2023/05/31 08:59:48;;;;;;;20.38;12.27;;;;;;;24.75;77.15;98315.78;5088094;28;20063;-60
2023/05/31 09:02:20;;;;;;;19.30;12.23;;;;;;;24.73;77.47;98307.97;5107829;28;20044;-60
2023/05/31 09:04:51;;;;;;;16.73;10.95;;;;;;;24.72;77.56;98310.94;5098580;28;20051;-59
2023/05/31 09:07:20;;;;;;;15.00;11.35;;;;;;;24.71;78.00;98298.50;5096247;28;20044;-59
2023/05/31 09:09:50;;;;;;;16.02;11.85;;;;;;;24.66;77.74;98290.44;5094734;28;20112;-60
2023/05/31 09:12:19;;;;;;;17.65;12.45;;;;;;;24.65;77.80;98286.94;5091330;28;20048;-60
2023/05/31 09:14:49;;;;;;;16.48;11.18;;;;;;;24.61;78.62;98283.19;5106601;28;20040;-59
2023/05/31 09:17:18;;;;;;;20.83;12.35;;;;;;;24.56;78.77;98278.66;5107187;28;20047;-60
2023/05/31 09:19:53;;;;;;;17.23;12.38;;;;;;;24.55;79.03;98285.19;5100263;28;20101;-61
2023/05/31 09:22:23;;;;;;;21.83;12.48;;;;;;;24.56;79.92;98283.31;5103470;28;20112;-59
2023/05/31 09:24:59;;;;;;;17.88;12.20;;;;;;;24.55;79.72;98287.91;5086994;28;20192;-60
2023/05/31 09:27:39;;;;;;;16.58;11.63;;;;;;;24.53;80.32;98276.56;5086516;28;20528;-59
2023/05/31 09:30:14;;;;;;;19.17;11.77;;;;;;;24.55;80.78;98274.38;5095786;28;20039;-60
2023/05/31 09:32:54;;;;;;;17.30;12.95;;;;;;;24.51;80.60;98253.59;5077574;28;20544;-60
2023/05/31 09:35:27;;;;;;;19.52;12.15;;;;;;;24.48;80.64;98248.75;5097245;28;20143;-59
2023/05/31 09:37:56;;;;;;;20.00;11.82;;;;;;;24.40;80.85;98246.69;5094350;28;20048;-59
2023/05/31 09:40:27;;;;;;;17.23;11.85;;;;;;;24.42;81.19;98249.94;5095173;28;20367;-59
2023/05/31 09:42:56;;;;;;;21.02;12.00;;;;;;;24.40;81.26;98246.69;5096592;28;20044;-59
2023/05/31 09:45:28;;;;;;;23.00;13.27;;;;;;;24.41;82.46;98232.06;5090566;28;20051;-60
2023/05/31 09:47:59;;;;;;;19.27;12.80;;;;;;;24.41;82.45;98229.38;5097453;28;20036;-59
2023/05/31 09:50:29;;;;;;;20.17;13.02;;;;;;;24.40;82.34;98233.16;5080977;28;20062;-59
2023/05/31 09:52:58;;;;;;;21.48;13.32;;;;;;;24.37;82.12;98231.06;5095244;28;20043;-59
2023/05/31 09:55:42;;;;;;;20.00;13.10;;;;;;;24.37;82.42;98233.75;5078184;28;20040;-60
2023/05/31 09:58:31;;;;;;;21.67;13.27;;;;;;;24.37;82.72;98248.09;5091808;28;20075;-59
2023/05/31 10:01:04;;;;;;;23.50;13.65;;;;;;;24.38;82.85;98249.72;5097513;28;20534;-59
2023/05/31 10:03:34;;;;;;;20.55;12.75;;;;;;;24.37;83.23;98252.72;5093711;28;20044;-60
2023/05/31 10:06:04;;;;;;;17.38;12.38;;;;;;;24.35;83.09;98250.28;5093607;28;20490;-60
2023/05/31 10:08:34;;;;;;;19.15;13.05;;;;;;;24.38;83.13;98257.84;5095476;28;20477;-60
2023/05/31 10:11:04;;;;;;;19.38;12.70;;;;;;;24.39;83.48;98259.44;5076612;28;20055;-60
2023/05/31 10:13:34;;;;;;;17.00;12.88;;;;;;;24.40;83.95;98265.66;5078200;28;20494;-59
2023/05/31 10:16:10;;;;;;;17.00;12.52;;;;;;;24.41;83.49;98280.81;5092971;28;20104;-58
2023/05/31 10:18:48;;;;;;;19.92;12.43;;;;;;;24.41;83.30;98289.72;5096468;28;20072;-57
2023/05/31 10:21:24;;;;;;;21.63;13.07;;;;;;;24.37;82.33;98293.31;5093506;28;20044;-59
2023/05/31 10:24:03;;;;;;;20.17;12.73;;;;;;;24.40;82.99;98298.13;5086219;28;20058;-60
2023/05/31 10:26:55;;;;;;;16.98;12.43;;;;;;;24.42;82.80;98296.75;5082245;28;20054;-61
2023/05/31 10:29:31;;;;;;;17.55;12.05;;;;;;;24.47;82.45;98301.31;5092021;28;20047;-59
2023/05/31 10:32:26;;;;;;;15.38;12.57;;;;;;;24.45;82.45;98303.47;5094668;28;20044;-67
2023/05/31 10:34:56;;;;;;;18.33;12.45;;;;;;;24.47;83.02;98307.50;5077216;28;20051;-62
2023/05/31 10:37:26;;;;;;;16.05;13.00;;;;;;;24.49;83.31;98312.63;5086504;28;20585;-62
2023/05/31 10:40:14;;;;;;;21.95;14.27;;;;;;;24.48;83.22;98313.72;5095885;28;20048;-62
2023/05/31 10:42:54;;;;;;;27.85;15.27;;;;;;;24.45;82.72;98308.91;5094572;28;20041;-64
2023/05/31 10:45:35;;;;;;;21.58;15.40;;;;;;;24.50;83.02;98308.84;5093995;28;20652;-63
2023/05/31 10:48:43;;;;;;;24.00;16.17;;;;;;;24.49;83.28;98308.03;5096839;28;20642;-63
2023/05/31 10:51:15;;;;;;;23.60;17.50;;;;;;;24.51;83.59;98296.91;4724843;28;10000249;-61
2023/05/31 10:53:50;;;;;;;29.63;21.17;;;;;;;24.51;83.89;98281.47;5071644;28;20044;-63
2023/05/31 10:56:22;;;;;;;29.90;20.02;;;;;;;24.54;84.02;98285.47;5076839;28;20055;-62
2023/05/31 10:58:52;;;;;;;33.05;22.90;;;;;;;24.58;83.82;98272.97;5093326;28;20090;-63
2023/05/31 11:01:22;;;;;;;33.70;23.30;;;;;;;24.56;84.22;98272.47;5092849;28;20131;-61
2023/05/31 11:03:53;;;;;;;33.30;25.08;;;;;;;24.57;83.99;98268.63;5077227;28;20136;-58
2023/05/31 11:06:26;;;;;;;36.55;26.02;;;;;;;24.57;84.01;98266.75;5090149;28;20051;-58
2023/05/31 11:09:08;;;;;;;33.45;26.35;;;;;;;24.56;83.71;98269.75;5094413;28;20062;-59
2023/05/31 11:11:39;;;;;;;43.05;27.48;;;;;;;24.55;83.77;98277.06;5058367;28;20675;-59
2023/05/31 11:14:27;;;;;;;37.13;26.58;;;;;;;24.57;84.25;98277.56;5065450;28;20110;-57
2023/05/31 11:17:03;;;;;;;36.85;26.85;;;;;;;24.57;84.25;98288.41;5078159;28;20048;-58
2023/05/31 11:19:40;;;;;;;42.90;29.25;;;;;;;24.54;83.77;98294.41;5097826;28;20738;-56
2023/05/31 11:22:12;;;;;;;43.83;29.27;;;;;;;24.50;83.84;98290.69;5095934;28;20665;-58
2023/05/31 11:24:51;;;;;;;35.50;28.38;;;;;;;24.46;84.04;98289.66;5100258;28;20048;-56
2023/05/31 11:27:23;;;;;;;38.22;27.70;;;;;;;24.29;83.43;98286.66;5099437;28;20052;-59
2023/05/31 11:29:53;;;;;;;24.98;19.77;;;;;;;24.24;82.11;98277.78;5086673;28;20050;-58
2023/05/31 11:32:38;;;;;;;15.95;12.48;;;;;;;24.11;80.72;98271.16;5103198;28;20044;-58
2023/05/31 11:35:18;;;;;;;14.80;9.02;;;;;;;23.97;80.80;98268.38;5088244;28;20136;-60
2023/05/31 11:37:48;;;;;;;10.38;7.18;;;;;;;23.73;79.45;98276.47;5090926;28;20049;-59
2023/05/31 11:40:18;;;;;;;9.32;6.13;;;;;;;23.68;80.44;98267.63;5105066;28;20126;-59
2023/05/31 11:42:48;;;;;;;10.20;6.53;;;;;;;23.78;80.93;98264.00;5078139;28;20044;-60
2023/05/31 11:45:17;;;;;;;6.60;5.90;;;;;;;23.82;80.83;98259.63;5092114;28;20053;-59
2023/05/31 11:48:11;;;;;;;7.72;6.22;;;;;;;23.80;80.72;98259.94;5068792;28;20102;-60